createdAt,value
2023-03-06T00:00:58.752Z,-0.11
2023-03-06T00:03:53.769Z,-0.04
2023-03-06T00:06:41.729Z,0.02
2023-03-06T00:09:22.746Z,0.05
2023-03-06T00:12:11.732Z,0.09
2023-03-06T00:14:52.723Z,0.13
2023-03-06T00:17:47.728Z,0.10
2023-03-06T00:20:35.738Z,0.08
2023-03-06T00:23:17.871Z,0.09
2023-03-06T00:25:58.721Z,0.09
2023-03-06T00:28:46.743Z,0.07
2023-03-06T00:31:21.386Z,0.09
2023-03-06T00:34:10.934Z,0.11
2023-03-06T00:36:46.343Z,0.12
2023-03-06T00:39:33.770Z,0.07
2023-03-06T00:42:09.332Z,0.06
2023-03-06T00:44:57.936Z,0.04
2023-03-06T00:47:33.782Z,0.05
2023-03-06T00:50:23.732Z,0.06
2023-03-06T00:53:04.925Z,0.06
2023-03-06T00:55:46.070Z,0.08
2023-03-06T00:58:27.749Z,0.08
2023-03-06T01:01:08.898Z,0.07
2023-03-06T01:03:49.723Z,0.05
2023-03-06T01:06:37.730Z,0.07
2023-03-06T01:09:12.253Z,0.09
2023-03-06T01:12:00.908Z,0.10
2023-03-06T01:14:37.084Z,0.12
2023-03-06T01:17:25.924Z,0.12
2023-03-06T01:20:21.747Z,0.12
2023-03-06T01:23:10.909Z,0.10
2023-03-06T01:25:45.954Z,0.03
2023-03-06T01:28:34.712Z,-0.01
2023-03-06T01:31:09.836Z,-0.06
2023-03-06T01:33:57.710Z,-0.11
2023-03-06T01:36:33.050Z,-0.18
2023-03-06T01:39:20.912Z,-0.26
2023-03-06T01:42:02.844Z,-0.32
2023-03-06T01:45:19.729Z,-0.34
2023-03-06T01:48:14.709Z,-0.34
2023-03-06T01:51:02.727Z,-0.31
2023-03-06T01:53:36.854Z,-0.29
2023-03-06T01:56:26.926Z,-0.25
2023-03-06T01:59:04.032Z,-0.21
2023-03-06T02:01:58.950Z,-0.16
2023-03-06T02:04:49.708Z,-0.11
2023-03-06T02:07:26.882Z,-0.08
2023-03-06T02:10:15.708Z,-0.08
2023-03-06T02:12:57.734Z,-0.08
2023-03-06T02:15:52.722Z,-0.08
2023-03-06T02:18:42.697Z,-0.08
2023-03-06T02:21:22.897Z,-0.05
2023-03-06T02:24:18.705Z,-0.02
2023-03-06T02:27:00.906Z,-0.01
2023-03-06T02:29:42.706Z,-0.02
2023-03-06T02:32:24.078Z,-0.03
2023-03-06T02:35:05.910Z,-0.04
2023-03-06T02:37:48.078Z,-0.06
2023-03-06T02:40:29.722Z,-0.07
2023-03-06T02:43:10.838Z,-0.08
2023-03-06T02:45:56.932Z,-0.07
2023-03-06T02:48:38.028Z,-0.11
2023-03-06T02:51:19.691Z,-0.14
2023-03-06T02:54:00.830Z,-0.15
2023-03-06T02:56:41.705Z,-0.16
2023-03-06T02:59:36.909Z,-0.17
2023-03-06T03:02:24.894Z,-0.15
2023-03-06T03:05:00.040Z,-0.16
2023-03-06T03:07:47.689Z,-0.17
2023-03-06T03:10:29.674Z,-0.16
2023-03-06T03:13:24.694Z,-0.15
2023-03-06T03:16:15.787Z,-0.18
2023-03-06T03:18:53.827Z,-0.21
2023-03-06T03:21:42.896Z,-0.21
2023-03-06T03:24:17.838Z,-0.18
2023-03-06T03:27:05.696Z,-0.16
2023-03-06T03:29:47.995Z,-0.18
2023-03-06T03:32:29.765Z,-0.22
2023-03-06T03:35:13.848Z,-0.23
2023-03-06T03:37:54.719Z,-0.26
2023-03-06T03:40:35.818Z,-0.30
2023-03-06T03:43:16.668Z,-0.30
2023-03-06T03:46:00.028Z,-0.31
2023-03-06T03:48:41.682Z,-0.33
2023-03-06T03:51:29.702Z,-0.35
2023-03-06T03:54:06.239Z,-0.37
2023-03-06T03:56:53.879Z,-0.37
2023-03-06T03:59:42.687Z,-0.40
2023-03-06T04:02:30.896Z,-0.38
2023-03-06T04:05:06.057Z,-0.33
2023-03-06T04:07:53.692Z,-0.27
2023-03-06T04:10:27.988Z,-0.22
2023-03-06T04:13:15.671Z,-0.18
2023-03-06T04:16:06.921Z,-0.13
2023-03-06T04:18:42.292Z,-0.09
2023-03-06T04:21:30.880Z,-0.05
2023-03-06T04:24:13.712Z,0.04
2023-03-06T04:27:01.695Z,0.10
2023-03-06T04:29:36.242Z,0.12
2023-03-06T04:32:23.776Z,0.13
2023-03-06T04:34:59.794Z,0.15
2023-03-06T04:37:48.856Z,0.16
2023-03-06T04:40:29.478Z,0.15
2023-03-06T04:43:18.712Z,0.15
2023-03-06T04:45:53.142Z,0.15
2023-03-06T04:48:40.745Z,0.12
2023-03-06T04:51:16.135Z,0.14
2023-03-06T04:54:03.686Z,0.17
2023-03-06T04:56:44.704Z,0.12
2023-03-06T04:59:39.660Z,0.02
2023-03-06T05:02:27.927Z,0.03
2023-03-06T05:05:02.800Z,0.11
2023-03-06T05:07:50.658Z,0.18
2023-03-06T05:10:32.676Z,0.23
2023-03-06T05:13:27.652Z,0.29
2023-03-06T05:16:16.910Z,0.31
2023-03-06T05:18:58.866Z,0.30
2023-03-06T05:21:53.694Z,0.29
2023-03-06T05:24:41.669Z,0.30
2023-03-06T05:27:23.672Z,0.33
2023-03-06T05:30:19.685Z,0.34
2023-03-06T05:33:07.675Z,0.38
2023-03-06T05:35:56.047Z,0.37
2023-03-06T05:38:37.684Z,0.33
2023-03-06T05:41:26.899Z,0.31
2023-03-06T05:44:02.169Z,0.26
2023-03-06T05:46:49.671Z,0.28
2023-03-06T05:49:24.089Z,0.33
2023-03-06T05:52:11.681Z,0.42
2023-03-06T05:54:51.073Z,0.53
2023-03-06T05:57:38.689Z,0.66
2023-03-06T06:00:34.669Z,0.79
2023-03-06T06:03:22.674Z,0.94
2023-03-06T06:05:57.799Z,1.05
2023-03-06T06:08:45.673Z,1.16
2023-03-06T06:11:21.384Z,1.31
2023-03-06T06:14:09.690Z,1.48
2023-03-06T06:16:51.669Z,1.60
2023-03-06T06:19:46.670Z,1.69
2023-03-06T06:22:34.672Z,1.77
2023-03-06T06:25:09.793Z,1.88
2023-03-06T06:27:57.706Z,2.05
2023-03-06T06:30:32.905Z,2.23
2023-03-06T06:33:20.692Z,2.38
2023-03-06T06:36:02.682Z,2.49
2023-03-06T06:38:50.653Z,2.54
2023-03-06T06:41:46.616Z,2.61
2023-03-06T06:44:39.692Z,2.72
2023-03-06T06:47:24.566Z,2.81
2023-03-06T06:50:13.662Z,2.80
2023-03-06T06:52:48.886Z,2.76
2023-03-06T06:55:36.664Z,2.85
2023-03-06T06:58:18.642Z,2.91
2023-03-06T07:01:24.674Z,3.04
2023-03-06T07:04:12.679Z,3.15
2023-03-06T07:06:47.794Z,3.31
2023-03-06T07:09:37.656Z,3.52
2023-03-06T07:12:13.798Z,3.72
2023-03-06T07:15:01.668Z,3.87
2023-03-06T07:17:36.814Z,4.00
2023-03-06T07:20:25.667Z,4.10
2023-03-06T07:23:07.667Z,4.19
2023-03-06T07:25:55.678Z,4.31
2023-03-06T07:28:51.223Z,4.40
2023-03-06T07:31:46.637Z,4.51
2023-03-06T07:34:34.760Z,4.64
2023-03-06T07:37:16.864Z,4.74
2023-03-06T07:40:12.688Z,4.87
2023-03-06T07:43:16.916Z,4.99
2023-03-06T07:45:53.800Z,5.07
2023-03-06T07:48:42.659Z,5.17
2023-03-06T07:51:31.680Z,5.25
2023-03-06T07:54:26.662Z,5.29
2023-03-06T07:57:14.649Z,5.21
2023-03-06T07:59:55.705Z,5.01
2023-03-06T08:02:44.697Z,4.79
2023-03-06T08:05:21.865Z,4.63
2023-03-06T08:08:09.701Z,4.55
2023-03-06T08:10:51.709Z,4.44
2023-03-06T08:13:46.694Z,4.33
2023-03-06T08:16:35.727Z,4.22
2023-03-06T08:19:10.894Z,4.20
2023-03-06T08:21:58.670Z,4.34
2023-03-06T08:24:33.864Z,4.37
2023-03-06T08:27:21.694Z,4.33
2023-03-06T08:29:56.768Z,4.27
2023-03-06T08:32:44.684Z,4.16
2023-03-06T08:35:25.805Z,4.17
2023-03-06T08:38:06.665Z,4.14
2023-03-06T08:40:47.771Z,4.02
2023-03-06T08:43:28.694Z,3.90
2023-03-06T08:46:17.724Z,3.77
2023-03-06T08:48:52.448Z,3.69
2023-03-06T08:51:40.695Z,3.68
2023-03-06T08:54:15.243Z,3.72
2023-03-06T08:57:03.691Z,3.76
2023-03-06T08:59:44.779Z,3.81
2023-03-06T09:02:25.797Z,3.91
2023-03-06T09:05:08.090Z,3.98
2023-03-06T09:07:48.759Z,4.14
2023-03-06T09:10:31.679Z,4.28
2023-03-06T09:13:12.882Z,4.41
2023-03-06T09:15:54.674Z,4.53
2023-03-06T09:18:36.880Z,4.65
2023-03-06T09:21:18.632Z,4.74
2023-03-06T09:24:06.725Z,4.84
2023-03-06T09:26:50.515Z,4.91
2023-03-06T09:29:39.719Z,4.98
2023-03-06T09:32:14.248Z,5.06
2023-03-06T09:35:03.639Z,5.07
2023-03-06T09:37:44.663Z,5.12
2023-03-06T09:40:40.781Z,5.27
2023-03-06T09:43:27.638Z,5.42
2023-03-06T09:46:15.824Z,5.61
2023-03-06T09:49:39.653Z,5.71
2023-03-06T09:52:34.652Z,5.81
2023-03-06T09:55:13.542Z,5.84
2023-03-06T09:58:29.633Z,5.92
2023-03-06T10:01:26.761Z,6.12
2023-03-06T10:04:31.674Z,6.34
2023-03-06T10:07:30.750Z,6.53
2023-03-06T10:10:13.669Z,6.64
2023-03-06T10:13:07.768Z,6.71
2023-03-06T10:15:50.685Z,6.82
2023-03-06T10:18:31.650Z,6.93
2023-03-06T10:21:18.660Z,7.05
2023-03-06T10:24:27.645Z,7.10
2023-03-06T10:27:13.715Z,7.18
2023-03-06T10:30:15.636Z,7.29
2023-03-06T10:33:14.624Z,7.31
2023-03-06T10:35:48.886Z,7.34
2023-03-06T10:38:36.626Z,7.30
2023-03-06T10:41:17.840Z,7.28
2023-03-06T10:44:07.636Z,7.25
2023-03-06T10:46:52.904Z,7.21
2023-03-06T10:49:42.631Z,7.21
2023-03-06T10:52:31.974Z,7.23
2023-03-06T10:55:32.657Z,7.29
2023-03-06T10:58:51.634Z,7.40
2023-03-06T11:01:39.740Z,7.42
2023-03-06T11:04:38.211Z,7.44
2023-03-06T11:07:34.648Z,7.43
2023-03-06T11:10:24.757Z,7.44
2023-03-06T11:13:28.658Z,7.38
2023-03-06T11:16:08.881Z,7.43
2023-03-06T11:19:04.704Z,7.56
2023-03-06T11:21:41.940Z,7.69
2023-03-06T11:24:29.627Z,7.83
2023-03-06T11:27:06.773Z,7.97
2023-03-06T11:29:58.630Z,8.02
2023-03-06T11:32:40.851Z,8.01
2023-03-06T11:35:34.681Z,8.04
2023-03-06T11:38:25.749Z,8.19
2023-03-06T11:41:09.951Z,8.36
2023-03-06T11:44:26.089Z,8.42
2023-03-06T11:47:35.926Z,8.32
2023-03-06T11:50:49.612Z,8.30
2023-03-06T11:53:38.000Z,8.35
2023-03-06T11:56:38.012Z,8.37
2023-03-06T11:59:34.813Z,8.25
2023-03-06T12:02:40.616Z,8.09
2023-03-06T12:05:41.834Z,8.09
2023-03-06T12:08:43.844Z,8.18
2023-03-06T12:11:54.794Z,8.35
2023-03-06T12:15:12.627Z,8.71
2023-03-06T12:18:21.668Z,8.83
2023-03-06T12:21:31.649Z,8.96
2023-03-06T12:24:32.625Z,9.04
2023-03-06T12:27:06.969Z,9.03
2023-03-06T12:30:07.620Z,9.00
2023-03-06T12:32:51.692Z,9.04
2023-03-06T12:35:50.987Z,9.16
2023-03-06T12:39:00.696Z,9.41
2023-03-06T12:41:57.606Z,9.55
2023-03-06T12:45:13.638Z,9.58
2023-03-06T12:47:48.645Z,9.58
2023-03-06T12:50:50.624Z,9.60
2023-03-06T12:53:30.173Z,9.54
2023-03-06T12:56:18.620Z,9.38
2023-03-06T12:59:09.647Z,9.25
2023-03-06T13:02:30.678Z,9.09
2023-03-06T13:05:38.647Z,8.89
2023-03-06T13:08:35.637Z,8.65
2023-03-06T13:11:33.812Z,8.40
2023-03-06T13:14:35.836Z,8.19
2023-03-06T13:17:29.822Z,8.05
2023-03-06T13:20:20.631Z,7.92
2023-03-06T13:22:55.802Z,7.83
2023-03-06T13:25:54.831Z,7.73
2023-03-06T13:28:50.734Z,7.62
2023-03-06T13:31:42.670Z,7.51
2023-03-06T13:34:37.820Z,7.46
2023-03-06T13:37:26.667Z,7.47
2023-03-06T13:40:20.736Z,7.45
2023-03-06T13:43:11.807Z,7.40
2023-03-06T13:45:53.907Z,7.30
2023-03-06T13:48:44.838Z,7.21
2023-03-06T13:51:32.751Z,7.18
2023-03-06T13:54:35.623Z,7.23
2023-03-06T13:57:50.760Z,7.34
2023-03-06T14:01:04.647Z,7.46
2023-03-06T14:04:11.752Z,7.53
2023-03-06T14:06:53.645Z,7.54
2023-03-06T14:09:55.618Z,7.54
2023-03-06T14:13:04.623Z,7.48
2023-03-06T14:15:54.711Z,7.36
2023-03-06T14:18:49.613Z,7.28
2023-03-06T14:21:54.718Z,7.21
2023-03-06T14:24:48.619Z,7.11
2023-03-06T14:27:33.604Z,6.88
2023-03-06T14:30:33.606Z,6.56
2023-03-06T14:33:40.600Z,6.36
2023-03-06T14:36:31.687Z,6.17
2023-03-06T14:39:16.626Z,5.93
2023-03-06T14:42:21.620Z,5.63
2023-03-06T14:45:12.638Z,5.56
2023-03-06T14:47:47.750Z,5.54
2023-03-06T14:50:41.145Z,5.46
2023-03-06T14:53:44.885Z,5.45
2023-03-06T14:56:33.622Z,5.42
2023-03-06T14:59:10.726Z,5.27
2023-03-06T15:02:03.791Z,5.13
2023-03-06T15:04:48.730Z,5.05
2023-03-06T15:07:37.624Z,4.95
2023-03-06T15:10:12.732Z,4.85
2023-03-06T15:13:01.623Z,4.84
2023-03-06T15:15:45.631Z,4.80
2023-03-06T15:18:51.642Z,4.73
2023-03-06T15:21:44.696Z,4.67
2023-03-06T15:24:48.709Z,4.57
2023-03-06T15:27:43.711Z,4.48
2023-03-06T15:30:39.637Z,4.39
2023-03-06T15:33:23.990Z,4.31
2023-03-06T15:36:13.593Z,4.21
2023-03-06T15:38:50.769Z,4.11
2023-03-06T15:41:43.607Z,4.02
2023-03-06T15:44:18.761Z,3.96
2023-03-06T15:47:09.664Z,3.94
2023-03-06T15:49:45.751Z,3.97
2023-03-06T15:52:33.584Z,4.06
2023-03-06T15:55:16.618Z,4.11
2023-03-06T15:58:06.578Z,4.15
2023-03-06T16:00:42.759Z,4.14
2023-03-06T16:03:30.600Z,4.10
2023-03-06T16:06:05.741Z,4.02
2023-03-06T16:08:53.614Z,3.87
2023-03-06T16:11:43.715Z,3.78
2023-03-06T16:14:31.594Z,3.76
2023-03-06T16:17:12.873Z,3.77
2023-03-06T16:19:54.598Z,3.73
2023-03-06T16:22:35.717Z,3.66
2023-03-06T16:25:16.573Z,3.58
2023-03-06T16:28:01.906Z,3.51
2023-03-06T16:30:44.642Z,3.44
2023-03-06T16:33:27.728Z,3.41
2023-03-06T16:36:09.757Z,3.40
2023-03-06T16:38:50.838Z,3.39
2023-03-06T16:41:32.628Z,3.37
2023-03-06T16:44:21.723Z,3.32
2023-03-06T16:47:02.747Z,3.21
2023-03-06T16:49:43.734Z,3.11
2023-03-06T16:52:24.618Z,3.03
2023-03-06T16:55:05.704Z,2.93
2023-03-06T16:57:46.590Z,2.85
2023-03-06T17:00:39.592Z,2.79
2023-03-06T17:03:34.571Z,2.80
2023-03-06T17:06:24.595Z,2.84
2023-03-06T17:09:00.322Z,2.93
2023-03-06T17:11:53.622Z,3.03
2023-03-06T17:14:28.831Z,3.14
2023-03-06T17:17:16.578Z,3.21
2023-03-06T17:20:02.599Z,3.26
2023-03-06T17:22:57.576Z,3.33
2023-03-06T17:25:46.239Z,3.33
2023-03-06T17:28:21.831Z,3.33
2023-03-06T17:31:12.732Z,3.35
2023-03-06T17:33:51.687Z,3.36
2023-03-06T17:36:39.574Z,3.28
2023-03-06T17:39:21.575Z,3.22
2023-03-06T17:42:16.564Z,3.18
2023-03-06T17:45:04.588Z,3.13
2023-03-06T17:47:48.965Z,3.10
2023-03-06T17:50:43.629Z,3.12
2023-03-06T17:53:31.594Z,3.17
2023-03-06T17:56:06.846Z,3.22
2023-03-06T17:58:54.572Z,3.23
2023-03-06T18:01:37.856Z,3.22
2023-03-06T18:04:25.578Z,3.17
2023-03-06T18:07:00.730Z,3.13
2023-03-06T18:10:00.312Z,3.08
2023-03-06T18:12:35.734Z,3.03
2023-03-06T18:15:23.587Z,3.00
2023-03-06T18:18:04.731Z,2.95
2023-03-06T18:20:49.572Z,2.88
2023-03-06T18:23:37.866Z,2.78
2023-03-06T18:26:16.854Z,2.73
2023-03-06T18:29:12.854Z,2.68
2023-03-06T18:32:16.386Z,2.59
2023-03-06T18:35:11.560Z,2.48
2023-03-06T18:38:08.990Z,2.37
2023-03-06T18:41:15.794Z,2.25
2023-03-06T18:44:23.523Z,2.19
2023-03-06T18:47:06.945Z,2.21
2023-03-06T18:50:00.674Z,2.22
2023-03-06T18:53:03.580Z,2.27
2023-03-06T18:55:49.197Z,2.31
2023-03-06T18:58:50.655Z,2.36
2023-03-06T19:01:27.079Z,2.39
2023-03-06T19:04:17.813Z,2.41
2023-03-06T19:06:54.835Z,2.43
2023-03-06T19:09:45.028Z,2.48
2023-03-06T19:12:21.311Z,2.55
2023-03-06T19:19:00.976Z,2.57
2023-03-06T19:21:51.845Z,2.53
2023-03-06T19:24:34.609Z,2.49
2023-03-06T19:27:38.194Z,2.44
2023-03-06T19:30:22.599Z,2.38
2023-03-06T19:33:03.701Z,2.32
2023-03-06T19:35:44.692Z,2.21
2023-03-06T19:38:25.702Z,2.15
2023-03-06T19:41:08.566Z,2.13
2023-03-06T19:43:52.289Z,2.09
2023-03-06T19:46:33.564Z,2.08
2023-03-06T19:49:16.162Z,2.05
2023-03-06T19:51:59.855Z,2.03
2023-03-06T19:54:40.908Z,2.03
2023-03-06T19:57:22.664Z,2.03
2023-03-06T20:00:18.573Z,2.01
2023-03-06T20:03:06.567Z,2.03
2023-03-06T20:05:41.884Z,2.08
2023-03-06T20:08:31.602Z,2.14
2023-03-06T20:11:13.564Z,2.19
2023-03-06T20:14:04.961Z,2.22
2023-03-06T20:16:50.109Z,2.26
2023-03-06T20:19:44.921Z,2.29
2023-03-06T20:22:39.696Z,2.33
2023-03-06T20:25:28.677Z,2.37
2023-03-06T20:28:11.564Z,2.39
2023-03-06T20:31:06.726Z,2.40
2023-03-06T20:33:56.587Z,2.43
2023-03-06T20:36:46.545Z,2.43
2023-03-06T20:40:18.255Z,2.42
2023-03-06T20:43:09.697Z,2.41
2023-03-06T20:46:11.519Z,2.40
2023-03-06T20:48:56.700Z,2.36
2023-03-06T20:51:40.537Z,2.30
2023-03-06T20:54:29.548Z,2.23
2023-03-06T20:57:10.770Z,2.21
2023-03-06T21:00:07.603Z,2.23
2023-03-06T21:02:55.659Z,2.28
2023-03-06T21:05:30.906Z,2.31
2023-03-06T21:08:18.617Z,2.33
2023-03-06T21:10:53.687Z,2.28
2023-03-06T21:13:41.601Z,2.22
2023-03-06T21:16:19.766Z,2.19
2023-03-06T21:19:32.549Z,2.16
2023-03-06T21:22:14.738Z,2.12
2023-03-06T21:24:55.556Z,2.07
2023-03-06T21:27:44.565Z,1.99
2023-03-06T21:30:19.120Z,1.88
2023-03-06T21:33:07.564Z,1.76
2023-03-06T21:35:50.733Z,1.64
2023-03-06T21:38:31.677Z,1.50
2023-03-06T21:41:21.548Z,1.35
2023-03-06T21:44:12.744Z,1.22
2023-03-06T21:46:47.958Z,1.12
2023-03-06T21:49:36.534Z,1.03
2023-03-06T21:52:11.129Z,0.95
2023-03-06T21:55:02.524Z,0.90
2023-03-06T21:57:36.976Z,0.89
2023-03-06T22:00:26.552Z,0.88
2023-03-06T22:03:03.581Z,0.86
2023-03-06T22:05:51.622Z,0.82
2023-03-06T22:08:25.960Z,0.81
2023-03-06T22:11:14.554Z,0.84
2023-03-06T22:13:49.711Z,0.86
2023-03-06T22:16:37.548Z,0.86
2023-03-06T22:19:12.272Z,0.83
2023-03-06T22:22:00.583Z,0.80
2023-03-06T22:24:36.175Z,0.75
2023-03-06T22:27:24.744Z,0.71
2023-03-06T22:30:06.518Z,0.67
2023-03-06T22:32:48.804Z,0.63
2023-03-06T22:35:32.151Z,0.57
2023-03-06T22:38:13.682Z,0.50
2023-03-06T22:40:54.719Z,0.43
2023-03-06T22:43:43.746Z,0.39
2023-03-06T22:46:19.277Z,0.37
2023-03-06T22:49:10.512Z,0.37
2023-03-06T22:51:45.054Z,0.36
2023-03-06T22:54:32.512Z,0.34
2023-03-06T22:57:06.914Z,0.32
2023-03-06T22:59:54.525Z,0.28
2023-03-06T23:02:50.527Z,0.25
2023-03-06T23:05:38.528Z,0.24
2023-03-06T23:08:13.670Z,0.23
2023-03-06T23:11:01.540Z,0.18
2023-03-06T23:13:37.263Z,0.11
2023-03-06T23:16:25.535Z,0.04
2023-03-06T23:19:06.674Z,-0.03
2023-03-06T23:21:47.524Z,-0.09
2023-03-06T23:24:28.916Z,-0.11
2023-03-06T23:27:10.517Z,-0.11
2023-03-06T23:30:01.532Z,-0.13
2023-03-06T23:32:35.957Z,-0.16
2023-03-06T23:35:23.531Z,-0.19
2023-03-06T23:38:04.543Z,-0.20
2023-03-06T23:40:52.508Z,-0.18
2023-03-06T23:43:28.437Z,-0.14
2023-03-06T23:46:17.503Z,-0.12
2023-03-06T23:48:52.555Z,-0.14
2023-03-06T23:51:40.514Z,-0.17
2023-03-06T23:54:21.504Z,-0.22
2023-03-06T23:57:02.669Z,-0.27
2023-03-06T23:59:43.517Z,-0.30
